Map

Track Data

SID SEASON NUMBER BASIN SUBBASIN NAME ISO_TIME NATURE LAT LON WMO_WIND WMO_PRES WMO_AGENCY TRACK_TYPE DIST2LAND LANDFALL IFLAG USA_AGENCY USA_ATCF_ID USA_LAT USA_LON USA_RECORD USA_STATUS USA_WIND USA_PRES USA_SSHS USA_R34_NE USA_R34_SE USA_R34_SW USA_R34_NW USA_R50_NE USA_R50_SE USA_R50_SW USA_R50_NW USA_R64_NE USA_R64_SE USA_R64_SW USA_R64_NW USA_POCI USA_ROCI USA_RMW USA_EYE TOKYO_LAT TOKYO_LON TOKYO_GRADE TOKYO_WIND TOKYO_PRES TOKYO_R50_DIR TOKYO_R50_LONG TOKYO_R50_SHORT TOKYO_R30_DIR TOKYO_R30_LONG TOKYO_R30_SHORT TOKYO_LAND CMA_LAT CMA_LON CMA_CAT CMA_WIND CMA_PRES HKO_LAT HKO_LON HKO_CAT HKO_WIND HKO_PRES NEWDELHI_LAT NEWDELHI_LON NEWDELHI_GRADE NEWDELHI_WIND NEWDELHI_PRES NEWDELHI_CI NEWDELHI_DP NEWDELHI_POCI REUNION_LAT REUNION_LON REUNION_TYPE REUNION_WIND REUNION_PRES REUNION_TNUM REUNION_CI REUNION_RMW REUNION_R34_NE REUNION_R34_SE REUNION_R34_SW REUNION_R34_NW REUNION_R50_NE REUNION_R50_SE REUNION_R50_SW REUNION_R50_NW REUNION_R64_NE REUNION_R64_SE REUNION_R64_SW REUNION_R64_NW BOM_LAT BOM_LON BOM_TYPE BOM_WIND BOM_PRES BOM_TNUM BOM_CI BOM_RMW BOM_R34_NE BOM_R34_SE BOM_R34_SW BOM_R34_NW BOM_R50_NE BOM_R50_SE BOM_R50_SW BOM_R50_NW BOM_R64_NE BOM_R64_SE BOM_R64_SW BOM_R64_NW BOM_ROCI BOM_POCI BOM_EYE BOM_POS_METHOD BOM_PRES_METHOD NADI_LAT NADI_LON NADI_CAT NADI_WIND NADI_PRES WELLINGTON_LAT WELLINGTON_LON WELLINGTON_WIND WELLINGTON_PRES DS824_LAT DS824_LON DS824_STAGE DS824_WIND DS824_PRES TD9636_LAT TD9636_LON TD9636_STAGE TD9636_WIND TD9636_PRES TD9635_LAT TD9635_LON TD9635_WIND TD9635_PRES TD9635_ROCI NEUMANN_LAT NEUMANN_LON NEUMANN_CLASS NEUMANN_WIND NEUMANN_PRES MLC_LAT MLC_LON MLC_CLASS MLC_WIND MLC_PRES USA_GUST BOM_GUST BOM_GUST_PER REUNION_GUST REUNION_GUST_PER USA_SEAHGT USA_SEARAD_NE USA_SEARAD_SE USA_SEARAD_SW USA_SEARAD_NW STORM_SPEED STORM_DIR
1890021S07090 1890 3 SI WA NOT_NAMED 1890-01-21 06:00:00 NR -7.30000 90.0000 main 1169 1169 _____O________ -1 -7.30000 90.0000 99 9.90000 0 0
1890021S07090 1890 3 SI MM NOT_NAMED 1890-01-21 09:00:00 NR -7.30891 89.9799 main 1169 1169 _____P________ -1 -7.30891 89.9799 99 1 248
1890021S07090 1890 3 SI MM NOT_NAMED 1890-01-21 12:00:00 NR -7.32057 89.9452 main 1179 1179 _____P________ -1 -7.32057 89.9452 99 1 254
1890021S07090 1890 3 SI MM NOT_NAMED 1890-01-21 15:00:00 NR -7.33771 89.8809 main 1179 1179 _____P________ -1 -7.33771 89.8809 99 2 256
1890021S07090 1890 3 SI MM NOT_NAMED 1890-01-21 18:00:00 NR -7.36307 89.7724 main 1194 1194 _____P________ -1 -7.36307 89.7724 99 3 257
1890021S07090 1890 3 SI MM NOT_NAMED 1890-01-21 21:00:00 NR -7.39934 89.6049 main 1213 1213 _____P________ -1 -7.39934 89.6049 99 4 258
1890021S07090 1890 3 SI MM NOT_NAMED 1890-01-22 00:00:00 NR -7.44920 89.3635 main 1232 1232 _____P________ -1 -7.44920 89.3635 99 6 258
1890021S07090 1890 3 SI MM NOT_NAMED 1890-01-22 03:00:00 NR -7.51525 89.0335 main 1275 1275 _____P________ -1 -7.51525 89.0335 99 8 259
1890021S07090 1890 3 SI MM NOT_NAMED 1890-01-22 06:00:00 NR -7.60000 88.6000 main 1319 1319 _____O________ -1 -7.60000 88.6000 99 9.90000 10 259
1890021S07090 1890 3 SI MM NOT_NAMED 1890-01-22 09:00:00 NR -7.70558 88.0529 main 1373 1373 _____P________ -1 -7.70558 88.0529 99 12 259
1890021S07090 1890 3 SI MM NOT_NAMED 1890-01-22 12:00:00 NR -7.83297 87.4016 main 1445 1445 _____P________ -1 -7.83297 87.4016 99 14 259
1890021S07090 1890 3 SI MM NOT_NAMED 1890-01-22 15:00:00 NR -7.98289 86.6605 main 1523 1523 _____P________ -1 -7.98289 86.6605 99 16 258
1890021S07090 1890 3 SI MM NOT_NAMED 1890-01-22 18:00:00 NR -8.15611 85.8438 main 1621 1621 _____P________ -1 -8.15611 85.8438 99 17 258
1890021S07090 1890 3 SI MM NOT_NAMED 1890-01-22 21:00:00 NR -8.35343 84.9656 main 1675 1659 _____P________ -1 -8.35343 84.9656 99 18 257
1890021S07090 1890 3 SI MM NOT_NAMED 1890-01-23 00:00:00 NR -8.57578 84.0397 main 1668 1663 _____P________ -1 -8.57578 84.0397 99 19 256
1890021S07090 1890 3 SI MM NOT_NAMED 1890-01-23 03:00:00 NR -8.82423 83.0800 main 1670 1668 _____P________ -1 -8.82423 83.0800 99 20 255
1890021S07090 1890 3 SI MM NOT_NAMED 1890-01-23 06:00:00 NR -9.10000 82.1000 main 1689 1686 _____O________ -1 -9.10000 82.1000 99 9.90000 21 254
1890021S07090 1890 3 SI MM NOT_NAMED 1890-01-23 09:00:00 NR -9.40383 81.0891 main 1715 1714 _____P________ -1 -9.40383 81.0891 99 21 253
1890021S07090 1890 3 SI MM NOT_NAMED 1890-01-23 12:00:00 NR -9.73787 80.0341 main 1749 1749 _____P________ -1 -9.73787 80.0341 99 22 252
1890021S07090 1890 3 SI MM NOT_NAMED 1890-01-23 15:00:00 NR -10.0951 78.9564 main 1801 1801 _____P________ -1 -10.0951 78.9564 99 22 251
1890021S07090 1890 3 SI MM NOT_NAMED 1890-01-23 18:00:00 NR -10.4688 77.8779 main 1861 1861 _____P________ -1 -10.4688 77.8779 99 22 250
1890021S07090 1890 3 SI MM NOT_NAMED 1890-01-23 21:00:00 NR -10.8523 76.8206 main 1928 1928 _____P________ -1 -10.8523 76.8206 99 22 249
1890021S07090 1890 3 SI MM NOT_NAMED 1890-01-24 00:00:00 NR -11.2392 75.8068 main 1988 1988 _____P________ -1 -11.2392 75.8068 99 21 248
1890021S07090 1890 3 SI MM NOT_NAMED 1890-01-24 03:00:00 NR -11.6237 74.8591 main 2059 1962 _____P________ -1 -11.6237 74.8591 99 19 247
1890021S07090 1890 3 SI MM NOT_NAMED 1890-01-24 06:00:00 NR -12.0000 74.0000 reunion main 1962 1873 _____O________ -1 -12.0000 74.0000 99 9.90000 18 244
1890021S07090 1890 3 SI MM NOT_NAMED 1890-01-24 09:00:00 NR -12.3849 73.2358 main 1864 1785 _____P________ -1 -12.3849 73.2358 99 16 241
1890021S07090 1890 3 SI MM NOT_NAMED 1890-01-24 12:00:00 NR -12.7721 72.5479 main 1776 1712 _____P________ -1 -12.7721 72.5479 99 15 239
1890021S07090 1890 3 SI MM NOT_NAMED 1890-01-24 15:00:00 NR -13.1538 71.9339 main 1697 1633 _____P________ -1 -13.1538 71.9339 99 14 236
1890021S07090 1890 3 SI MM NOT_NAMED 1890-01-24 18:00:00 NR -13.5222 71.3916 main 1633 1564 _____P________ -1 -13.5222 71.3916 99 12 234
1890021S07090 1890 3 SI MM NOT_NAMED 1890-01-24 21:00:00 NR -13.8692 70.9188 main 1564 1510 _____P________ -1 -13.8692 70.9188 99 11 232
1890021S07090 1890 3 SI MM NOT_NAMED 1890-01-25 00:00:00 NR -14.1867 70.5138 main 1510 1466 _____P________ -1 -14.1867 70.5138 99 9 230
1890021S07090 1890 3 SI MM NOT_NAMED 1890-01-25 03:00:00 NR -14.4664 70.1748 main 1466 1427 _____P________ -1 -14.4664 70.1748 99 8 229
1890021S07090 1890 3 SI MM NOT_NAMED 1890-01-25 06:00:00 NR -14.7000 69.9000 reunion main 1427 1398 _____O________ -1 -14.7000 69.9000 99 9.90000 6 229
1890021S07090 1890 3 SI MM NOT_NAMED 1890-01-25 09:00:00 NR -14.8815 69.6869 main 1398 1373 _____P________ -1 -14.8815 69.6869 99 5 229
1890021S07090 1890 3 SI MM NOT_NAMED 1890-01-25 12:00:00 NR -15.0154 69.5288 main 1373 1359 _____P________ -1 -15.0154 69.5288 99 3 229
1890021S07090 1890 3 SI MM NOT_NAMED 1890-01-25 15:00:00 NR -15.1084 69.4181 main 1359 1344 _____P________ -1 -15.1084 69.4181 99 2 229
1890021S07090 1890 3 SI MM NOT_NAMED 1890-01-25 18:00:00 NR -15.1674 69.3469 main 1344 1344 _____P________ -1 -15.1674 69.3469 99 1 228
1890021S07090 1890 3 SI MM NOT_NAMED 1890-01-25 21:00:00 NR -15.1993 69.3074 main 1344 1344 _____P________ -1 -15.1993 69.3074 99 1 231
1890021S07090 1890 3 SI MM NOT_NAMED 1890-01-26 00:00:00 NR -15.2108 69.2917 main 1344 1344 _____P________ -1 -15.2108 69.2917 99 0 0
1890021S07090 1890 3 SI MM NOT_NAMED 1890-01-26 03:00:00 NR -15.2088 69.2919 main 1344 1344 _____P________ -1 -15.2088 69.2919 99 0 0
1890021S07090 1890 3 SI MM NOT_NAMED 1890-01-26 06:00:00 NR -15.2000 69.3000 reunion main 1344 _____O________ -1 -15.2000 69.3000 99 9.90000 0 0

About IBTrACS Database

This database is a web-friendly format of International Best Track Archive for Climate Stewardship (IBTrACS), a global best track data archive curated by NOAA dating back to 1842.

Updated: 2021-10-08